createdAt,value
2023-04-01T00:01:27.353Z,6.56
2023-04-01T00:04:00.358Z,6.52
2023-04-01T00:06:32.181Z,6.47
2023-04-01T00:09:04.079Z,6.44
2023-04-01T00:11:37.241Z,6.39
2023-04-01T00:14:08.963Z,6.36
2023-04-01T00:16:40.915Z,6.33
2023-04-01T00:19:12.509Z,6.28
2023-04-01T00:21:44.103Z,6.22
2023-04-01T00:24:15.727Z,6.18
2023-04-01T00:26:48.661Z,6.18
2023-04-01T00:29:20.242Z,6.15
2023-04-01T00:31:52.078Z,6.07
2023-04-01T00:34:24.744Z,6.03
2023-04-01T00:36:56.367Z,6.01
2023-04-01T00:39:31.087Z,5.94
2023-04-01T00:42:04.501Z,5.83
2023-04-01T00:44:39.951Z,5.73
2023-04-01T00:47:11.721Z,5.67
2023-04-01T00:49:46.558Z,5.62
2023-04-01T00:52:23.784Z,5.56
2023-04-01T00:55:00.761Z,5.55
2023-04-01T00:57:38.118Z,5.53
2023-04-01T01:00:13.862Z,5.47
2023-04-01T01:02:47.686Z,5.45
2023-04-01T01:05:28.007Z,5.44
2023-04-01T01:08:16.766Z,5.39
2023-04-01T01:10:51.121Z,5.35
2023-04-01T01:13:41.069Z,5.37
2023-04-01T01:16:29.190Z,5.39
2023-04-01T01:19:37.323Z,5.32
2023-04-01T01:22:47.765Z,5.25
2023-04-01T01:25:41.893Z,5.13
2023-04-01T01:28:26.291Z,5.05
2023-04-01T01:31:22.160Z,5.03
2023-04-01T01:34:25.922Z,4.99
2023-04-01T01:37:04.723Z,4.95
2023-04-01T01:39:37.613Z,4.93
2023-04-01T01:42:12.738Z,4.93
2023-04-01T01:44:47.327Z,4.91
2023-04-01T01:47:22.067Z,4.88
2023-04-01T01:49:56.635Z,4.86
2023-04-01T01:52:32.177Z,4.83
2023-04-01T01:55:04.477Z,4.77
2023-04-01T01:57:40.299Z,4.74
2023-04-01T02:00:16.087Z,4.68
2023-04-01T02:02:49.905Z,4.62
2023-04-01T02:05:25.839Z,4.52
2023-04-01T02:08:06.441Z,4.47
2023-04-01T02:10:44.287Z,4.45
2023-04-01T02:13:48.963Z,4.41
2023-04-01T02:16:28.058Z,4.33
2023-04-01T02:19:01.997Z,4.25
2023-04-01T02:21:34.701Z,4.18
2023-04-01T02:24:11.565Z,4.16
2023-04-01T02:26:45.019Z,4.20
2023-04-01T02:29:19.288Z,4.21
2023-04-01T02:31:52.945Z,4.18
2023-04-01T02:34:26.082Z,4.13
2023-04-01T02:36:58.897Z,4.11
2023-04-01T02:39:31.018Z,4.11
2023-04-01T02:42:02.602Z,4.11
2023-04-01T02:44:34.226Z,4.10
2023-04-01T02:47:06.304Z,4.08
2023-04-01T02:49:37.978Z,4.10
2023-04-01T02:52:09.582Z,4.12
2023-04-01T02:54:42.569Z,4.13
2023-04-01T02:57:14.242Z,4.14
2023-04-01T02:59:46.273Z,4.11
2023-04-01T03:02:18.020Z,4.11
2023-04-01T03:04:49.753Z,4.13
2023-04-01T03:07:21.372Z,4.09
2023-04-01T03:09:53.229Z,4.06
2023-04-01T03:12:24.964Z,4.06
2023-04-01T03:14:56.962Z,4.05
2023-04-01T03:17:43.720Z,4.04
2023-04-01T03:20:16.639Z,4.06
2023-04-01T03:22:48.253Z,4.08
2023-04-01T03:25:20.388Z,4.11
2023-04-01T03:27:51.947Z,4.11
2023-04-01T03:30:23.686Z,4.10
2023-04-01T03:32:55.769Z,4.11
2023-04-01T03:35:28.283Z,4.11
2023-04-01T03:38:00.134Z,4.09
2023-04-01T03:40:31.743Z,4.11
2023-04-01T03:43:03.367Z,4.10
2023-04-01T03:45:35.071Z,4.12
2023-04-01T03:48:06.742Z,4.15
2023-04-01T03:50:38.348Z,4.16
2023-04-01T03:53:10.467Z,4.17
2023-04-01T03:55:42.135Z,4.21
2023-04-01T03:58:14.271Z,4.24
2023-04-01T04:00:46.109Z,4.25
2023-04-01T04:03:17.807Z,4.26
2023-04-01T04:05:50.679Z,4.25
2023-04-01T04:08:22.656Z,4.24
2023-04-01T04:10:57.324Z,4.24
2023-04-01T04:13:29.207Z,4.26
2023-04-01T04:16:00.852Z,4.30
2023-04-01T04:18:32.681Z,4.31
2023-04-01T04:21:04.966Z,4.29
2023-04-01T04:23:38.294Z,4.30
2023-04-01T04:26:12.560Z,4.33
2023-04-01T04:28:44.192Z,4.38
2023-04-01T04:31:23.681Z,4.39
2023-04-01T04:33:56.027Z,4.41
2023-04-01T04:36:28.037Z,4.40
2023-04-01T04:39:02.960Z,4.40
2023-04-01T04:41:37.638Z,4.38
2023-04-01T04:44:09.632Z,4.41
2023-04-01T04:46:41.351Z,4.42
2023-04-01T04:49:13.038Z,4.43
2023-04-01T04:51:45.046Z,4.41
2023-04-01T04:54:16.630Z,4.42
2023-04-01T04:56:48.354Z,4.44
2023-04-01T04:59:20.047Z,4.42
2023-04-01T05:01:51.756Z,4.44
2023-04-01T05:04:23.314Z,4.46
2023-04-01T05:06:54.870Z,4.46
2023-04-01T05:09:26.651Z,4.45
2023-04-01T05:11:58.255Z,4.44
2023-04-01T05:14:29.825Z,4.44
2023-04-01T05:17:01.490Z,4.46
2023-04-01T05:19:33.225Z,4.47
2023-04-01T05:22:05.556Z,4.48
2023-04-01T05:24:37.174Z,4.44
2023-04-01T05:27:08.712Z,4.43
2023-04-01T05:29:40.349Z,4.47
2023-04-01T05:32:11.874Z,4.50
2023-04-01T05:34:43.478Z,4.50
2023-04-01T05:37:15.003Z,4.46
2023-04-01T05:39:46.906Z,4.44
2023-04-01T05:42:18.434Z,4.38
2023-04-01T05:44:49.983Z,4.36
2023-04-01T05:47:21.556Z,4.36
2023-04-01T05:49:53.331Z,4.37
2023-04-01T05:52:25.278Z,4.35
2023-04-01T05:54:56.909Z,4.32
2023-04-01T05:57:28.528Z,4.27
2023-04-01T06:00:00.151Z,4.26
2023-04-01T06:02:31.807Z,4.24
2023-04-01T06:05:25.349Z,4.21
2023-04-01T06:08:01.924Z,4.18
2023-04-01T06:10:54.466Z,4.16
2023-04-01T06:14:23.381Z,4.15
2023-04-01T06:17:18.621Z,4.16
2023-04-01T06:20:31.513Z,4.15
2023-04-01T06:23:31.431Z,4.15
2023-04-01T06:26:08.806Z,4.15
2023-04-01T06:28:58.500Z,4.15
2023-04-01T06:31:40.361Z,4.15
2023-04-01T06:34:18.017Z,4.12
2023-04-01T06:37:12.498Z,4.14
2023-04-01T06:39:52.339Z,4.16
2023-04-01T06:42:42.176Z,4.16
2023-04-01T06:45:29.028Z,4.20
2023-04-01T06:48:15.973Z,4.21
2023-04-01T06:50:59.882Z,4.22
2023-04-01T06:53:51.702Z,4.26
2023-04-01T06:56:27.674Z,4.26
2023-04-01T06:59:08.489Z,4.22
2023-04-01T07:01:46.956Z,4.17
2023-04-01T07:04:34.997Z,4.13
2023-04-01T07:07:17.289Z,4.09
2023-04-01T07:09:55.043Z,4.09
2023-04-01T07:12:39.434Z,4.06
2023-04-01T07:15:25.906Z,4.04
2023-04-01T07:18:07.888Z,4.02
2023-04-01T07:20:39.898Z,4.04
2023-04-01T07:23:37.638Z,4.07
2023-04-01T07:26:26.104Z,4.06
2023-04-01T07:28:58.138Z,4.05
2023-04-01T07:31:31.573Z,4.01
2023-04-01T07:34:22.077Z,4.00
2023-04-01T07:37:11.637Z,4.01
2023-04-01T07:40:15.311Z,3.97
2023-04-01T07:43:13.015Z,3.97
2023-04-01T07:46:00.419Z,3.91
2023-04-01T07:48:43.016Z,3.86
2023-04-01T07:51:23.360Z,3.82
2023-04-01T07:54:03.916Z,3.81
2023-04-01T07:57:16.793Z,3.79
2023-04-01T08:00:10.882Z,3.81
2023-04-01T08:03:04.171Z,3.79
2023-04-01T08:05:46.049Z,3.79
2023-04-01T08:08:42.997Z,3.79
2023-04-01T08:11:34.347Z,3.81
2023-04-01T08:14:31.094Z,3.79
2023-04-01T08:17:21.320Z,3.78
2023-04-01T08:20:12.984Z,3.74
2023-04-01T08:22:51.949Z,3.74
2023-04-01T08:25:28.841Z,3.77
2023-04-01T08:28:18.336Z,3.85
2023-04-01T08:31:14.816Z,3.87
2023-04-01T08:33:48.598Z,3.87
2023-04-01T08:36:37.632Z,3.88
2023-04-01T08:39:16.784Z,3.89
2023-04-01T08:42:02.528Z,3.93
2023-04-01T08:45:05.077Z,3.93
2023-04-01T08:48:10.792Z,3.93
2023-04-01T08:50:55.384Z,3.88
2023-04-01T08:53:55.962Z,3.86
2023-04-01T08:56:54.657Z,3.85
2023-04-01T08:59:51.876Z,3.85
2023-04-01T09:02:48.448Z,3.85
2023-04-01T09:05:57.645Z,3.85
2023-04-01T09:08:49.733Z,3.84
2023-04-01T09:11:45.156Z,3.82
2023-04-01T09:14:35.774Z,3.82
2023-04-01T09:17:19.211Z,3.78
2023-04-01T09:20:15.932Z,3.76
2023-04-01T09:22:47.382Z,3.75
2023-04-01T09:25:31.173Z,3.75
2023-04-01T09:28:12.837Z,3.74
2023-04-01T09:31:02.968Z,3.74
2023-04-01T09:33:48.752Z,3.73
2023-04-01T09:36:33.404Z,3.72
2023-04-01T09:39:25.570Z,3.76
2023-04-01T09:42:32.712Z,3.87
2023-04-01T09:45:37.901Z,3.96
2023-04-01T09:48:39.961Z,3.95
2023-04-01T09:51:58.284Z,3.94
2023-04-01T09:54:54.167Z,3.94
2023-04-01T09:58:11.771Z,3.96
2023-04-01T10:01:07.935Z,3.98
2023-04-01T10:04:25.652Z,3.94
2023-04-01T10:07:34.962Z,3.94
2023-04-01T10:10:43.547Z,3.97
2023-04-01T10:13:28.524Z,3.93
2023-04-01T10:16:35.451Z,3.94
2023-04-01T10:19:38.315Z,3.96
2023-04-01T10:22:28.183Z,3.99
2023-04-01T10:25:26.393Z,4.01
2023-04-01T10:28:07.005Z,3.95
2023-04-01T10:31:15.189Z,3.96
2023-04-01T10:33:49.637Z,3.99
2023-04-01T10:36:46.096Z,4.02
2023-04-01T10:39:40.605Z,4.02
2023-04-01T10:42:38.894Z,4.07
2023-04-01T10:45:32.318Z,4.10
2023-04-01T10:48:16.502Z,4.11
2023-04-01T10:50:50.912Z,4.08
2023-04-01T10:53:32.566Z,4.06
2023-04-01T10:56:33.688Z,4.05
2023-04-01T10:59:30.501Z,4.01
2023-04-01T11:02:39.777Z,4.00
2023-04-01T11:05:49.324Z,3.95
2023-04-01T11:08:29.771Z,3.93
2023-04-01T11:11:23.253Z,3.93
2023-04-01T11:14:06.704Z,3.92
2023-04-01T11:16:56.970Z,3.87
2023-04-01T11:20:01.584Z,3.85
2023-04-01T11:22:58.085Z,3.83
2023-04-01T11:25:42.239Z,3.88
2023-04-01T11:28:25.948Z,3.88
2023-04-01T11:31:15.591Z,3.88
2023-04-01T11:34:13.438Z,3.91
2023-04-01T11:37:14.743Z,3.88
2023-04-01T11:40:08.528Z,3.92
2023-04-01T11:43:02.416Z,3.94
2023-04-01T11:45:40.925Z,4.00
2023-04-01T11:48:18.586Z,4.02
2023-04-01T11:51:11.640Z,3.97
2023-04-01T11:54:10.791Z,3.92
2023-04-01T11:56:57.542Z,3.91
2023-04-01T11:59:56.929Z,3.94
2023-04-01T12:03:22.779Z,3.91
2023-04-01T12:06:25.347Z,3.91
2023-04-01T12:09:21.688Z,3.96
2023-04-01T12:12:13.570Z,4.04
2023-04-01T12:15:03.277Z,4.09
2023-04-01T12:17:56.451Z,4.13
2023-04-01T12:20:38.886Z,4.10
2023-04-01T12:23:25.565Z,4.09
2023-04-01T12:26:26.933Z,4.09
2023-04-01T12:29:15.233Z,3.99
2023-04-01T12:31:46.759Z,3.92
2023-04-01T12:34:23.997Z,3.84
2023-04-01T12:37:26.340Z,3.77
2023-04-01T12:40:18.264Z,3.74
2023-04-01T12:42:50.087Z,3.75
2023-04-01T12:45:41.748Z,3.73
2023-04-01T12:48:34.495Z,3.69
2023-04-01T12:51:19.008Z,3.63
2023-04-01T12:54:23.800Z,3.60
2023-04-01T12:57:22.823Z,3.60
2023-04-01T13:00:12.311Z,3.64
2023-04-01T13:02:55.634Z,3.64
2023-04-01T13:06:12.256Z,3.66
2023-04-01T13:09:20.222Z,3.68
2023-04-01T13:12:42.901Z,3.61
2023-04-01T13:15:19.195Z,3.53
2023-04-01T13:17:50.733Z,3.48
2023-04-01T13:20:33.790Z,3.44
2023-04-01T13:23:35.341Z,3.42
2023-04-01T13:26:34.544Z,3.42
2023-04-01T13:29:18.746Z,3.44
2023-04-01T13:32:04.478Z,3.43
2023-04-01T13:35:00.970Z,3.43
2023-04-01T13:37:59.854Z,3.46
2023-04-01T13:41:04.065Z,3.47
2023-04-01T13:44:02.076Z,3.45
2023-04-01T13:46:46.478Z,3.41
2023-04-01T13:49:42.163Z,3.38
2023-04-01T13:52:51.092Z,3.32
2023-04-01T13:55:50.805Z,3.30
2023-04-01T13:58:34.353Z,3.34
2023-04-01T14:01:30.103Z,3.35
2023-04-01T14:04:13.963Z,3.36
2023-04-01T14:06:52.633Z,3.34
2023-04-01T14:09:30.504Z,3.33
2023-04-01T14:12:28.739Z,3.31
2023-04-01T14:15:03.370Z,3.26
2023-04-01T14:17:42.569Z,3.19
2023-04-01T14:20:41.438Z,3.16
2023-04-01T14:23:22.061Z,3.11
2023-04-01T14:26:05.953Z,3.10
2023-04-01T14:28:37.354Z,3.11
2023-04-01T14:31:30.730Z,3.09
2023-04-01T14:34:17.340Z,3.07
2023-04-01T14:37:02.622Z,3.04
2023-04-01T14:40:11.574Z,3.01
2023-04-01T14:42:51.017Z,2.96
2023-04-01T14:45:47.724Z,2.93
2023-04-01T14:48:51.628Z,2.87
2023-04-01T14:51:32.362Z,2.84
2023-04-01T14:54:23.635Z,2.80
2023-04-01T14:57:27.879Z,2.77
2023-04-01T14:59:59.429Z,2.72
2023-04-01T15:03:03.309Z,2.70
2023-04-01T15:05:41.356Z,2.66
2023-04-01T15:08:33.793Z,2.67
2023-04-01T15:11:05.510Z,2.68
2023-04-01T15:13:51.453Z,2.68
2023-04-01T15:16:42.315Z,2.67
2023-04-01T15:19:32.049Z,2.68
2023-04-01T15:22:25.345Z,2.69
2023-04-01T15:25:21.310Z,2.67
2023-04-01T15:27:57.277Z,2.65
2023-04-01T15:30:38.499Z,2.66
2023-04-01T15:33:26.415Z,2.69
2023-04-01T15:36:22.949Z,2.68
2023-04-01T15:39:21.092Z,2.64
2023-04-01T15:42:12.896Z,2.62
2023-04-01T15:44:56.734Z,2.60
2023-04-01T15:47:28.202Z,2.56
2023-04-01T15:50:05.864Z,2.53
2023-04-01T15:53:19.669Z,2.50
2023-04-01T15:56:09.995Z,2.52
2023-04-01T15:58:44.321Z,2.49
2023-04-01T16:01:43.391Z,2.49
2023-04-01T16:04:46.221Z,2.51
2023-04-01T16:07:34.101Z,2.48
2023-04-01T16:10:23.061Z,2.47
2023-04-01T16:13:30.498Z,2.45
2023-04-01T16:16:15.318Z,2.42
2023-04-01T16:18:53.807Z,2.42
2023-04-01T16:21:47.893Z,2.41
2023-04-01T16:24:37.820Z,2.41
2023-04-01T16:27:27.360Z,2.40
2023-04-01T16:30:41.857Z,2.41
2023-04-01T16:33:37.910Z,2.39
2023-04-01T16:36:35.620Z,2.40
2023-04-01T16:39:17.017Z,2.40
2023-04-01T16:42:11.820Z,2.36
2023-04-01T16:45:07.657Z,2.35
2023-04-01T16:47:50.589Z,2.33
2023-04-01T16:50:40.721Z,2.30
2023-04-01T16:53:17.063Z,2.28
2023-04-01T16:55:54.397Z,2.26
2023-04-01T16:58:40.036Z,2.26
2023-04-01T17:01:24.006Z,2.26
2023-04-01T17:04:15.657Z,2.26
2023-04-01T17:07:14.872Z,2.24
2023-04-01T17:10:29.929Z,2.19
2023-04-01T17:13:37.388Z,2.21
2023-04-01T17:16:37.743Z,2.18
2023-04-01T17:19:26.273Z,2.17
2023-04-01T17:22:12.538Z,2.15
2023-04-01T17:25:13.978Z,2.17
2023-04-01T17:27:59.275Z,2.18
2023-04-01T17:30:53.558Z,2.20
2023-04-01T17:34:03.177Z,2.17
2023-04-01T17:37:01.228Z,2.15
2023-04-01T17:39:32.732Z,2.16
2023-04-01T17:42:16.751Z,2.17
2023-04-01T17:44:57.016Z,2.21
2023-04-01T17:47:34.305Z,2.23
2023-04-01T17:50:44.555Z,2.22
2023-04-01T17:53:46.787Z,2.23
2023-04-01T17:56:39.774Z,2.21
2023-04-01T18:02:18.118Z,2.22
2023-04-01T18:05:05.463Z,2.21
2023-04-01T18:07:47.417Z,2.18
2023-04-01T18:10:36.354Z,2.16
2023-04-01T18:13:31.518Z,2.16
2023-04-01T18:16:30.591Z,2.13
2023-04-01T18:19:17.506Z,2.12
2023-04-01T18:21:54.615Z,2.13
2023-04-01T18:24:43.087Z,2.12
2023-04-01T18:27:22.396Z,2.11
2023-04-01T18:30:32.686Z,2.12
2023-04-01T18:33:24.274Z,2.11
2023-04-01T18:36:10.606Z,2.11
2023-04-01T18:38:51.062Z,2.12
2023-04-01T18:41:57.823Z,2.14
2023-04-01T18:44:44.288Z,2.15
2023-04-01T18:47:30.116Z,2.17
2023-04-01T18:50:36.242Z,2.16
2023-04-01T18:53:19.111Z,2.16
2023-04-01T18:55:56.230Z,2.19
2023-04-01T18:58:36.966Z,2.21
2023-04-01T19:01:29.220Z,2.22
2023-04-01T19:04:20.316Z,2.22
2023-04-01T19:06:57.143Z,2.23
2023-04-01T19:09:49.541Z,2.23
2023-04-01T19:12:51.522Z,2.24
2023-04-01T19:15:26.064Z,2.24
2023-04-01T19:18:22.835Z,2.24
2023-04-01T19:21:00.492Z,2.26
2023-04-01T19:26:28.104Z,2.25
2023-04-01T19:29:18.969Z,2.24
2023-04-01T19:32:05.592Z,2.24
2023-04-01T19:35:11.881Z,2.24
2023-04-01T19:38:13.067Z,2.25
2023-04-01T19:41:16.995Z,2.26
2023-04-01T19:43:54.283Z,2.25
2023-04-01T19:46:33.263Z,2.24
2023-04-01T19:49:28.408Z,2.24
2023-04-01T19:52:25.200Z,2.23
2023-04-01T19:55:16.958Z,2.23
2023-04-01T19:58:12.673Z,2.22
2023-04-01T20:00:55.191Z,2.21
2023-04-01T20:03:40.203Z,2.18
2023-04-01T20:06:29.011Z,2.16
2023-04-01T20:09:24.380Z,2.16
2023-04-01T20:12:25.352Z,2.13
2023-04-01T20:14:59.742Z,2.12
2023-04-01T20:17:41.932Z,2.10
2023-04-01T20:20:13.415Z,2.11
2023-04-01T20:22:45.125Z,2.09
2023-04-01T20:25:27.714Z,2.06
2023-04-01T20:28:21.615Z,2.05
2023-04-01T20:31:05.895Z,2.05
2023-04-01T20:33:43.612Z,2.06
2023-04-01T20:36:37.360Z,2.04
2023-04-01T20:39:35.649Z,2.03
2023-04-01T20:42:36.488Z,2.02
2023-04-01T20:45:37.261Z,1.99
2023-04-01T20:48:24.299Z,1.97
2023-04-01T20:51:05.836Z,1.97
2023-04-01T20:54:15.250Z,1.99
2023-04-01T20:57:26.581Z,1.95
2023-04-01T21:00:05.937Z,1.92
2023-04-01T21:02:59.143Z,1.88
2023-04-01T21:05:49.904Z,1.86
2023-04-01T21:08:52.285Z,1.82
2023-04-01T21:11:27.145Z,1.79
2023-04-01T21:14:32.991Z,1.77
2023-04-01T21:17:15.364Z,1.74
2023-04-01T21:19:47.225Z,1.72
2023-04-01T21:22:53.016Z,1.71
2023-04-01T21:25:50.921Z,1.69
2023-04-01T21:28:52.588Z,1.70
2023-04-01T21:31:48.797Z,1.68
2023-04-01T21:34:43.296Z,1.63
2023-04-01T21:37:27.204Z,1.58
2023-04-01T21:40:19.557Z,1.49
2023-04-01T21:42:51.075Z,1.43
2023-04-01T21:45:40.791Z,1.39
2023-04-01T21:48:31.138Z,1.34
2023-04-01T21:51:56.308Z,1.32
2023-04-01T21:54:56.359Z,1.29
2023-04-01T21:57:40.511Z,1.30
2023-04-01T22:00:21.441Z,1.29
2023-04-01T22:03:27.760Z,1.30
2023-04-01T22:06:05.851Z,1.29
2023-04-01T22:08:50.238Z,1.28
2023-04-01T22:11:33.774Z,1.27
2023-04-01T22:14:14.450Z,1.27
2023-04-01T22:16:59.053Z,1.28
2023-04-01T22:19:40.622Z,1.29
2023-04-01T22:22:19.852Z,1.32
2023-04-01T22:25:00.566Z,1.33
2023-04-01T22:27:57.010Z,1.33
2023-04-01T22:30:34.987Z,1.33
2023-04-01T22:33:33.376Z,1.33
2023-04-01T22:36:34.567Z,1.34
2023-04-01T22:39:27.378Z,1.33
2023-04-01T22:42:11.060Z,1.31
2023-04-01T22:44:55.943Z,1.30
2023-04-01T22:47:34.612Z,1.30
2023-04-01T22:50:28.289Z,1.30
2023-04-01T22:53:18.592Z,1.26
2023-04-01T22:55:54.034Z,1.22
2023-04-01T22:58:36.818Z,1.18
2023-04-01T23:01:23.174Z,1.12
2023-04-01T23:03:56.966Z,1.08
2023-04-01T23:06:36.489Z,1.05
2023-04-01T23:09:32.640Z,1.03
2023-04-01T23:12:10.489Z,1.00
2023-04-01T23:14:57.176Z,0.97
2023-04-01T23:18:16.213Z,0.96
2023-04-01T23:20:58.347Z,0.91
2023-04-01T23:23:54.397Z,0.89
2023-04-01T23:26:53.046Z,0.85
2023-04-01T23:29:26.844Z,0.82
2023-04-01T23:32:03.598Z,0.80
2023-04-01T23:34:36.996Z,0.81
2023-04-01T23:37:17.218Z,0.80
2023-04-01T23:39:58.627Z,0.79
2023-04-01T23:42:32.284Z,0.79
2023-04-01T23:45:18.092Z,0.78
2023-04-01T23:47:51.724Z,0.78
2023-04-01T23:50:27.726Z,0.81
2023-04-01T23:53:17.977Z,0.82
2023-04-01T23:55:51.165Z,0.85
2023-04-01T23:58:43.781Z,0.87
